sensor_id;sensor_type;location;lat;lon;timestamp;P1;durP1;ratioP1;P2;durP2;ratioP2
49530;SDS011;74875;30.696;104.060;2024-03-07T00:00:08;27.83;;;15.43;;
49530;SDS011;74875;30.696;104.060;2024-03-07T00:02:48;30.85;;;15.95;;
49530;SDS011;74875;30.696;104.060;2024-03-07T00:05:18;28.40;;;14.13;;
49530;SDS011;74875;30.696;104.060;2024-03-07T00:07:45;38.05;;;17.70;;
49530;SDS011;74875;30.696;104.060;2024-03-07T00:10:13;57.20;;;23.42;;
49530;SDS011;74875;30.696;104.060;2024-03-07T00:12:40;46.67;;;22.83;;
49530;SDS011;74875;30.696;104.060;2024-03-07T00:15:08;51.17;;;22.77;;
49530;SDS011;74875;30.696;104.060;2024-03-07T00:17:39;45.17;;;20.65;;
49530;SDS011;74875;30.696;104.060;2024-03-07T00:20:06;43.60;;;22.33;;
49530;SDS011;74875;30.696;104.060;2024-03-07T00:22:40;40.42;;;20.17;;
49530;SDS011;74875;30.696;104.060;2024-03-07T00:25:07;42.45;;;21.63;;
49530;SDS011;74875;30.696;104.060;2024-03-07T00:27:35;48.03;;;21.42;;
49530;SDS011;74875;30.696;104.060;2024-03-07T00:30:04;40.50;;;20.05;;
49530;SDS011;74875;30.696;104.060;2024-03-07T00:32:34;55.92;;;21.08;;
49530;SDS011;74875;30.696;104.060;2024-03-07T00:35:05;47.13;;;23.45;;
49530;SDS011;74875;30.696;104.060;2024-03-07T00:37:34;40.35;;;20.10;;
49530;SDS011;74875;30.696;104.060;2024-03-07T00:40:02;40.75;;;20.30;;
49530;SDS011;74875;30.696;104.060;2024-03-07T00:42:29;37.63;;;20.67;;
49530;SDS011;74875;30.696;104.060;2024-03-07T00:47:22;43.45;;;18.63;;
49530;SDS011;74875;30.696;104.060;2024-03-07T00:49:49;47.33;;;19.30;;
49530;SDS011;74875;30.696;104.060;2024-03-07T00:52:16;41.67;;;19.80;;
49530;SDS011;74875;30.696;104.060;2024-03-07T00:54:43;39.30;;;18.88;;
49530;SDS011;74875;30.696;104.060;2024-03-07T00:57:11;29.38;;;17.92;;
49530;SDS011;74875;30.696;104.060;2024-03-07T00:59:38;37.05;;;18.33;;
49530;SDS011;74875;30.696;104.060;2024-03-07T01:02:04;37.22;;;17.42;;
49530;SDS011;74875;30.696;104.060;2024-03-07T01:04:32;30.30;;;17.40;;
49530;SDS011;74875;30.696;104.060;2024-03-07T01:06:59;37.53;;;18.63;;
49530;SDS011;74875;30.696;104.060;2024-03-07T01:09:27;30.38;;;18.15;;
49530;SDS011;74875;30.696;104.060;2024-03-07T01:11:54;30.77;;;18.15;;
49530;SDS011;74875;30.696;104.060;2024-03-07T01:14:21;38.97;;;19.50;;
49530;SDS011;74875;30.696;104.060;2024-03-07T01:16:48;28.80;;;16.35;;
49530;SDS011;74875;30.696;104.060;2024-03-07T01:19:15;29.67;;;17.08;;
49530;SDS011;74875;30.696;104.060;2024-03-07T01:21:43;33.28;;;17.20;;
49530;SDS011;74875;30.696;104.060;2024-03-07T01:24:09;31.40;;;15.82;;
49530;SDS011;74875;30.696;104.060;2024-03-07T01:26:36;27.27;;;15.38;;
49530;SDS011;74875;30.696;104.060;2024-03-07T01:29:03;33.47;;;17.15;;
49530;SDS011;74875;30.696;104.060;2024-03-07T01:31:32;30.75;;;16.05;;
49530;SDS011;74875;30.696;104.060;2024-03-07T01:33:59;35.63;;;17.27;;
49530;SDS011;74875;30.696;104.060;2024-03-07T01:36:26;32.22;;;16.48;;
49530;SDS011;74875;30.696;104.060;2024-03-07T01:38:53;25.67;;;15.77;;
49530;SDS011;74875;30.696;104.060;2024-03-07T01:41:19;28.02;;;16.00;;
49530;SDS011;74875;30.696;104.060;2024-03-07T01:43:46;27.92;;;15.02;;
49530;SDS011;74875;30.696;104.060;2024-03-07T01:46:13;26.42;;;15.75;;
49530;SDS011;74875;30.696;104.060;2024-03-07T01:48:40;31.63;;;16.23;;
49530;SDS011;74875;30.696;104.060;2024-03-07T01:51:07;41.05;;;15.77;;
49530;SDS011;74875;30.696;104.060;2024-03-07T01:53:34;27.50;;;15.52;;
49530;SDS011;74875;30.696;104.060;2024-03-07T01:56:01;28.58;;;14.93;;
49530;SDS011;74875;30.696;104.060;2024-03-07T01:58:29;27.50;;;15.38;;
49530;SDS011;74875;30.696;104.060;2024-03-07T02:00:58;28.88;;;16.15;;
49530;SDS011;74875;30.696;104.060;2024-03-07T02:03:25;29.27;;;16.35;;
49530;SDS011;74875;30.696;104.060;2024-03-07T02:05:52;29.20;;;14.05;;
49530;SDS011;74875;30.696;104.060;2024-03-07T02:08:19;26.35;;;13.73;;
49530;SDS011;74875;30.696;104.060;2024-03-07T02:10:46;27.55;;;15.05;;
49530;SDS011;74875;30.696;104.060;2024-03-07T02:13:14;26.08;;;13.52;;
49530;SDS011;74875;30.696;104.060;2024-03-07T02:15:41;29.15;;;14.85;;
49530;SDS011;74875;30.696;104.060;2024-03-07T02:18:08;22.65;;;13.90;;
49530;SDS011;74875;30.696;104.060;2024-03-07T02:20:35;24.67;;;13.40;;
49530;SDS011;74875;30.696;104.060;2024-03-07T02:23:02;23.40;;;11.88;;
49530;SDS011;74875;30.696;104.060;2024-03-07T02:25:29;26.63;;;14.57;;
49530;SDS011;74875;30.696;104.060;2024-03-07T02:27:57;27.30;;;13.68;;
49530;SDS011;74875;30.696;104.060;2024-03-07T02:30:25;27.05;;;14.70;;
49530;SDS011;74875;30.696;104.060;2024-03-07T02:32:52;25.08;;;13.05;;
49530;SDS011;74875;30.696;104.060;2024-03-07T02:35:20;28.15;;;13.20;;
49530;SDS011;74875;30.696;104.060;2024-03-07T02:37:47;36.20;;;13.25;;
49530;SDS011;74875;30.696;104.060;2024-03-07T02:40:14;27.95;;;14.32;;
49530;SDS011;74875;30.696;104.060;2024-03-07T02:42:42;25.42;;;14.60;;
49530;SDS011;74875;30.696;104.060;2024-03-07T02:45:09;25.65;;;15.15;;
49530;SDS011;74875;30.696;104.060;2024-03-07T02:47:40;26.63;;;13.23;;
49530;SDS011;74875;30.696;104.060;2024-03-07T02:50:08;25.35;;;13.50;;
49530;SDS011;74875;30.696;104.060;2024-03-07T02:52:35;26.83;;;12.90;;
49530;SDS011;74875;30.696;104.060;2024-03-07T02:55:02;23.13;;;12.98;;
49530;SDS011;74875;30.696;104.060;2024-03-07T02:57:30;23.60;;;12.73;;
49530;SDS011;74875;30.696;104.060;2024-03-07T02:59:57;21.00;;;12.75;;
49530;SDS011;74875;30.696;104.060;2024-03-07T03:02:24;23.65;;;13.52;;
49530;SDS011;74875;30.696;104.060;2024-03-07T03:04:52;29.98;;;12.98;;
49530;SDS011;74875;30.696;104.060;2024-03-07T03:07:21;20.05;;;12.73;;
49530;SDS011;74875;30.696;104.060;2024-03-07T03:09:47;25.80;;;12.70;;
49530;SDS011;74875;30.696;104.060;2024-03-07T03:12:14;24.08;;;13.05;;
49530;SDS011;74875;30.696;104.060;2024-03-07T03:14:41;22.98;;;12.70;;
49530;SDS011;74875;30.696;104.060;2024-03-07T03:17:08;22.25;;;12.93;;
49530;SDS011;74875;30.696;104.060;2024-03-07T03:19:36;20.33;;;11.13;;
49530;SDS011;74875;30.696;104.060;2024-03-07T03:22:03;20.42;;;12.02;;
49530;SDS011;74875;30.696;104.060;2024-03-07T03:24:33;21.80;;;11.68;;
49530;SDS011;74875;30.696;104.060;2024-03-07T03:27:01;18.58;;;11.05;;
49530;SDS011;74875;30.696;104.060;2024-03-07T03:29:28;22.25;;;11.93;;
49530;SDS011;74875;30.696;104.060;2024-03-07T03:31:56;24.30;;;13.18;;
49530;SDS011;74875;30.696;104.060;2024-03-07T03:34:22;21.33;;;12.15;;
49530;SDS011;74875;30.696;104.060;2024-03-07T03:36:51;20.42;;;12.25;;
49530;SDS011;74875;30.696;104.060;2024-03-07T03:39:17;22.23;;;13.23;;
49530;SDS011;74875;30.696;104.060;2024-03-07T03:41:46;22.20;;;12.40;;
49530;SDS011;74875;30.696;104.060;2024-03-07T03:44:13;22.17;;;11.95;;
49530;SDS011;74875;30.696;104.060;2024-03-07T03:46:40;25.95;;;11.77;;
49530;SDS011;74875;30.696;104.060;2024-03-07T03:49:07;18.20;;;11.50;;
49530;SDS011;74875;30.696;104.060;2024-03-07T03:51:34;22.15;;;11.02;;
49530;SDS011;74875;30.696;104.060;2024-03-07T03:54:01;22.95;;;12.55;;
49530;SDS011;74875;30.696;104.060;2024-03-07T03:56:28;22.58;;;12.45;;
49530;SDS011;74875;30.696;104.060;2024-03-07T03:58:55;26.48;;;13.27;;
49530;SDS011;74875;30.696;104.060;2024-03-07T04:01:22;21.50;;;11.55;;
49530;SDS011;74875;30.696;104.060;2024-03-07T04:03:49;25.08;;;13.80;;
49530;SDS011;74875;30.696;104.060;2024-03-07T04:06:16;35.00;;;14.75;;
49530;SDS011;74875;30.696;104.060;2024-03-07T04:08:43;25.63;;;13.27;;
49530;SDS011;74875;30.696;104.060;2024-03-07T04:11:10;29.98;;;13.15;;
49530;SDS011;74875;30.696;104.060;2024-03-07T04:13:37;27.65;;;13.98;;
49530;SDS011;74875;30.696;104.060;2024-03-07T04:16:03;22.83;;;14.85;;
49530;SDS011;74875;30.696;104.060;2024-03-07T04:18:30;22.17;;;13.27;;
49530;SDS011;74875;30.696;104.060;2024-03-07T04:20:58;35.28;;;15.43;;
49530;SDS011;74875;30.696;104.060;2024-03-07T04:23:25;33.63;;;15.27;;
49530;SDS011;74875;30.696;104.060;2024-03-07T04:25:52;29.83;;;14.93;;
49530;SDS011;74875;30.696;104.060;2024-03-07T04:28:19;32.92;;;16.17;;
49530;SDS011;74875;30.696;104.060;2024-03-07T04:30:47;31.80;;;16.10;;
49530;SDS011;74875;30.696;104.060;2024-03-07T04:33:15;41.33;;;17.73;;
49530;SDS011;74875;30.696;104.060;2024-03-07T04:35:41;36.40;;;16.13;;
49530;SDS011;74875;30.696;104.060;2024-03-07T04:38:11;33.72;;;16.27;;
49530;SDS011;74875;30.696;104.060;2024-03-07T04:40:41;37.15;;;16.98;;
49530;SDS011;74875;30.696;104.060;2024-03-07T04:43:12;43.30;;;16.38;;
49530;SDS011;74875;30.696;104.060;2024-03-07T04:45:41;46.30;;;19.58;;
49530;SDS011;74875;30.696;104.060;2024-03-07T04:48:09;42.05;;;18.02;;
49530;SDS011;74875;30.696;104.060;2024-03-07T04:50:36;37.58;;;15.70;;
49530;SDS011;74875;30.696;104.060;2024-03-07T04:53:03;34.85;;;15.27;;
49530;SDS011;74875;30.696;104.060;2024-03-07T04:55:31;38.25;;;16.35;;
49530;SDS011;74875;30.696;104.060;2024-03-07T04:57:59;28.98;;;14.88;;
49530;SDS011;74875;30.696;104.060;2024-03-07T05:00:26;39.55;;;14.23;;
49530;SDS011;74875;30.696;104.060;2024-03-07T05:02:54;32.03;;;13.77;;
49530;SDS011;74875;30.696;104.060;2024-03-07T05:05:23;33.15;;;14.98;;
49530;SDS011;74875;30.696;104.060;2024-03-07T05:07:52;37.88;;;17.02;;
49530;SDS011;74875;30.696;104.060;2024-03-07T05:10:19;36.53;;;16.55;;
49530;SDS011;74875;30.696;104.060;2024-03-07T05:12:46;36.53;;;16.33;;
49530;SDS011;74875;30.696;104.060;2024-03-07T05:15:16;38.85;;;15.35;;
49530;SDS011;74875;30.696;104.060;2024-03-07T05:17:43;53.97;;;21.27;;
49530;SDS011;74875;30.696;104.060;2024-03-07T05:20:10;44.83;;;21.95;;
49530;SDS011;74875;30.696;104.060;2024-03-07T05:22:41;50.50;;;23.60;;
49530;SDS011;74875;30.696;104.060;2024-03-07T05:25:19;73.35;;;29.35;;
49530;SDS011;74875;30.696;104.060;2024-03-07T05:27:49;59.97;;;27.75;;
49530;SDS011;74875;30.696;104.060;2024-03-07T05:30:16;51.78;;;25.90;;
49530;SDS011;74875;30.696;104.060;2024-03-07T05:32:43;72.25;;;30.17;;
49530;SDS011;74875;30.696;104.060;2024-03-07T05:35:10;75.60;;;29.05;;
49530;SDS011;74875;30.696;104.060;2024-03-07T05:37:38;63.10;;;31.27;;
49530;SDS011;74875;30.696;104.060;2024-03-07T05:40:07;71.57;;;29.60;;
49530;SDS011;74875;30.696;104.060;2024-03-07T05:42:34;64.20;;;26.15;;
49530;SDS011;74875;30.696;104.060;2024-03-07T05:45:01;65.45;;;24.80;;
49530;SDS011;74875;30.696;104.060;2024-03-07T05:47:28;63.85;;;25.30;;
49530;SDS011;74875;30.696;104.060;2024-03-07T05:49:56;61.65;;;25.65;;
49530;SDS011;74875;30.696;104.060;2024-03-07T05:52:22;65.95;;;23.98;;
49530;SDS011;74875;30.696;104.060;2024-03-07T05:54:49;59.40;;;24.52;;
49530;SDS011;74875;30.696;104.060;2024-03-07T05:57:16;58.15;;;25.73;;
49530;SDS011;74875;30.696;104.060;2024-03-07T05:59:43;57.55;;;24.30;;
49530;SDS011;74875;30.696;104.060;2024-03-07T06:02:13;52.97;;;22.80;;
49530;SDS011;74875;30.696;104.060;2024-03-07T06:04:41;49.95;;;23.80;;
49530;SDS011;74875;30.696;104.060;2024-03-07T06:07:09;48.22;;;21.75;;
49530;SDS011;74875;30.696;104.060;2024-03-07T06:09:36;44.63;;;21.17;;
49530;SDS011;74875;30.696;104.060;2024-03-07T06:12:03;53.17;;;21.83;;
49530;SDS011;74875;30.696;104.060;2024-03-07T06:14:33;48.63;;;19.92;;
49530;SDS011;74875;30.696;104.060;2024-03-07T06:17:00;48.83;;;19.98;;
49530;SDS011;74875;30.696;104.060;2024-03-07T06:19:27;41.20;;;20.13;;
49530;SDS011;74875;30.696;104.060;2024-03-07T06:21:56;48.85;;;20.15;;
49530;SDS011;74875;30.696;104.060;2024-03-07T06:24:23;47.05;;;20.95;;
49530;SDS011;74875;30.696;104.060;2024-03-07T06:26:52;34.28;;;17.90;;
49530;SDS011;74875;30.696;104.060;2024-03-07T06:29:25;45.15;;;18.23;;
49530;SDS011;74875;30.696;104.060;2024-03-07T06:31:56;45.15;;;16.73;;
49530;SDS011;74875;30.696;104.060;2024-03-07T06:34:24;36.33;;;16.15;;
49530;SDS011;74875;30.696;104.060;2024-03-07T06:36:54;42.45;;;16.50;;
49530;SDS011;74875;30.696;104.060;2024-03-07T06:39:21;45.03;;;17.40;;
49530;SDS011;74875;30.696;104.060;2024-03-07T06:41:48;35.25;;;16.58;;
49530;SDS011;74875;30.696;104.060;2024-03-07T06:44:15;44.85;;;16.73;;
49530;SDS011;74875;30.696;104.060;2024-03-07T06:46:44;30.25;;;14.93;;
49530;SDS011;74875;30.696;104.060;2024-03-07T06:49:11;47.83;;;18.52;;
49530;SDS011;74875;30.696;104.060;2024-03-07T06:51:38;36.40;;;17.00;;
49530;SDS011;74875;30.696;104.060;2024-03-07T06:54:05;38.53;;;17.50;;
49530;SDS011;74875;30.696;104.060;2024-03-07T06:56:32;43.42;;;16.60;;
49530;SDS011;74875;30.696;104.060;2024-03-07T06:58:59;38.55;;;16.27;;
49530;SDS011;74875;30.696;104.060;2024-03-07T07:01:30;40.35;;;16.55;;
49530;SDS011;74875;30.696;104.060;2024-03-07T07:03:56;42.72;;;16.23;;
49530;SDS011;74875;30.696;104.060;2024-03-07T07:06:24;35.60;;;17.63;;
49530;SDS011;74875;30.696;104.060;2024-03-07T07:08:51;33.08;;;14.85;;
49530;SDS011;74875;30.696;104.060;2024-03-07T07:11:18;38.85;;;16.50;;
49530;SDS011;74875;30.696;104.060;2024-03-07T07:13:45;31.73;;;14.90;;
49530;SDS011;74875;30.696;104.060;2024-03-07T07:16:12;44.03;;;16.25;;
49530;SDS011;74875;30.696;104.060;2024-03-07T07:18:39;35.97;;;15.25;;
49530;SDS011;74875;30.696;104.060;2024-03-07T07:21:06;31.58;;;13.63;;
49530;SDS011;74875;30.696;104.060;2024-03-07T07:23:36;35.58;;;15.13;;
49530;SDS011;74875;30.696;104.060;2024-03-07T07:26:03;32.05;;;14.40;;
49530;SDS011;74875;30.696;104.060;2024-03-07T07:28:31;37.88;;;14.93;;
49530;SDS011;74875;30.696;104.060;2024-03-07T07:30:58;28.27;;;13.88;;
49530;SDS011;74875;30.696;104.060;2024-03-07T07:33:25;33.28;;;14.18;;
49530;SDS011;74875;30.696;104.060;2024-03-07T07:35:52;27.30;;;13.55;;
49530;SDS011;74875;30.696;104.060;2024-03-07T07:38:19;31.45;;;14.43;;
49530;SDS011;74875;30.696;104.060;2024-03-07T07:40:48;28.13;;;13.00;;
49530;SDS011;74875;30.696;104.060;2024-03-07T07:43:16;30.10;;;12.32;;
49530;SDS011;74875;30.696;104.060;2024-03-07T07:45:44;26.27;;;12.77;;
49530;SDS011;74875;30.696;104.060;2024-03-07T07:48:11;27.30;;;12.13;;
49530;SDS011;74875;30.696;104.060;2024-03-07T07:50:41;25.98;;;12.00;;
49530;SDS011;74875;30.696;104.060;2024-03-07T07:53:09;27.90;;;12.25;;
49530;SDS011;74875;30.696;104.060;2024-03-07T07:55:36;26.73;;;11.85;;
49530;SDS011;74875;30.696;104.060;2024-03-07T07:58:04;30.52;;;12.35;;
49530;SDS011;74875;30.696;104.060;2024-03-07T08:00:30;22.35;;;12.20;;
49530;SDS011;74875;30.696;104.060;2024-03-07T08:02:58;27.95;;;11.75;;
49530;SDS011;74875;30.696;104.060;2024-03-07T08:05:32;29.00;;;12.48;;
49530;SDS011;74875;30.696;104.060;2024-03-07T08:08:04;24.08;;;11.40;;
49530;SDS011;74875;30.696;104.060;2024-03-07T08:10:37;27.20;;;11.48;;
49530;SDS011;74875;30.696;104.060;2024-03-07T08:13:04;24.70;;;10.75;;
49530;SDS011;74875;30.696;104.060;2024-03-07T08:15:35;26.35;;;11.70;;
49530;SDS011;74875;30.696;104.060;2024-03-07T08:18:02;28.92;;;12.30;;
49530;SDS011;74875;30.696;104.060;2024-03-07T08:20:34;24.17;;;10.68;;
49530;SDS011;74875;30.696;104.060;2024-03-07T08:23:01;22.65;;;10.98;;
49530;SDS011;74875;30.696;104.060;2024-03-07T08:25:28;20.67;;;10.07;;
49530;SDS011;74875;30.696;104.060;2024-03-07T08:27:56;23.55;;;10.40;;
49530;SDS011;74875;30.696;104.060;2024-03-07T08:30:23;20.65;;;10.25;;
49530;SDS011;74875;30.696;104.060;2024-03-07T08:32:53;21.95;;;9.98;;
49530;SDS011;74875;30.696;104.060;2024-03-07T08:35:21;22.83;;;11.50;;
49530;SDS011;74875;30.696;104.060;2024-03-07T08:37:49;23.40;;;10.45;;
49530;SDS011;74875;30.696;104.060;2024-03-07T08:40:19;19.05;;;9.82;;
49530;SDS011;74875;30.696;104.060;2024-03-07T08:42:47;22.58;;;9.85;;
49530;SDS011;74875;30.696;104.060;2024-03-07T08:45:21;16.50;;;9.55;;
49530;SDS011;74875;30.696;104.060;2024-03-07T08:47:48;21.17;;;9.75;;
49530;SDS011;74875;30.696;104.060;2024-03-07T08:50:16;26.13;;;10.75;;
49530;SDS011;74875;30.696;104.060;2024-03-07T08:52:44;24.23;;;9.35;;
49530;SDS011;74875;30.696;104.060;2024-03-07T08:55:14;21.88;;;10.63;;
49530;SDS011;74875;30.696;104.060;2024-03-07T08:57:42;19.27;;;9.98;;
49530;SDS011;74875;30.696;104.060;2024-03-07T09:00:12;20.20;;;8.60;;
49530;SDS011;74875;30.696;104.060;2024-03-07T09:02:55;18.80;;;9.23;;
49530;SDS011;74875;30.696;104.060;2024-03-07T09:05:27;14.05;;;8.75;;
49530;SDS011;74875;30.696;104.060;2024-03-07T09:07:54;23.75;;;10.95;;
49530;SDS011;74875;30.696;104.060;2024-03-07T09:10:22;21.00;;;9.45;;
49530;SDS011;74875;30.696;104.060;2024-03-07T09:12:55;17.83;;;9.30;;
49530;SDS011;74875;30.696;104.060;2024-03-07T09:15:22;19.70;;;9.60;;
49530;SDS011;74875;30.696;104.060;2024-03-07T09:17:49;22.05;;;9.20;;
49530;SDS011;74875;30.696;104.060;2024-03-07T09:20:16;15.55;;;9.27;;
49530;SDS011;74875;30.696;104.060;2024-03-07T09:22:44;21.83;;;9.85;;
49530;SDS011;74875;30.696;104.060;2024-03-07T09:25:12;22.92;;;9.68;;
49530;SDS011;74875;30.696;104.060;2024-03-07T09:27:40;18.95;;;10.32;;
49530;SDS011;74875;30.696;104.060;2024-03-07T09:30:07;17.85;;;8.38;;
49530;SDS011;74875;30.696;104.060;2024-03-07T09:32:38;18.50;;;9.32;;
49530;SDS011;74875;30.696;104.060;2024-03-07T09:35:10;23.17;;;9.55;;
49530;SDS011;74875;30.696;104.060;2024-03-07T09:37:40;14.25;;;7.50;;
49530;SDS011;74875;30.696;104.060;2024-03-07T09:40:08;13.15;;;8.07;;
49530;SDS011;74875;30.696;104.060;2024-03-07T09:42:48;20.33;;;8.48;;
49530;SDS011;74875;30.696;104.060;2024-03-07T09:45:18;21.13;;;8.20;;
49530;SDS011;74875;30.696;104.060;2024-03-07T09:47:48;18.25;;;7.80;;
49530;SDS011;74875;30.696;104.060;2024-03-07T09:50:17;19.30;;;8.80;;
49530;SDS011;74875;30.696;104.060;2024-03-07T09:52:45;19.52;;;8.38;;
49530;SDS011;74875;30.696;104.060;2024-03-07T09:55:15;24.48;;;8.48;;
49530;SDS011;74875;30.696;104.060;2024-03-07T09:57:43;22.90;;;9.77;;
49530;SDS011;74875;30.696;104.060;2024-03-07T10:00:19;14.15;;;7.65;;
49530;SDS011;74875;30.696;104.060;2024-03-07T10:02:57;16.33;;;8.43;;
49530;SDS011;74875;30.696;104.060;2024-03-07T10:05:39;16.90;;;8.30;;
49530;SDS011;74875;30.696;104.060;2024-03-07T10:08:06;19.98;;;9.52;;
49530;SDS011;74875;30.696;104.060;2024-03-07T10:10:33;19.50;;;10.50;;
49530;SDS011;74875;30.696;104.060;2024-03-07T10:13:00;25.20;;;11.85;;
49530;SDS011;74875;30.696;104.060;2024-03-07T10:15:28;20.35;;;10.10;;
49530;SDS011;74875;30.696;104.060;2024-03-07T10:17:56;27.70;;;12.00;;
49530;SDS011;74875;30.696;104.060;2024-03-07T10:20:23;34.35;;;15.27;;
49530;SDS011;74875;30.696;104.060;2024-03-07T10:22:50;26.90;;;12.38;;
49530;SDS011;74875;30.696;104.060;2024-03-07T10:25:20;24.63;;;14.20;;
49530;SDS011;74875;30.696;104.060;2024-03-07T10:27:50;25.58;;;13.85;;
49530;SDS011;74875;30.696;104.060;2024-03-07T10:30:17;31.73;;;14.45;;
49530;SDS011;74875;30.696;104.060;2024-03-07T10:32:55;23.27;;;12.82;;
49530;SDS011;74875;30.696;104.060;2024-03-07T10:35:24;29.80;;;13.20;;
49530;SDS011;74875;30.696;104.060;2024-03-07T10:37:55;29.30;;;13.65;;
49530;SDS011;74875;30.696;104.060;2024-03-07T10:40:32;29.05;;;13.88;;
49530;SDS011;74875;30.696;104.060;2024-03-07T10:43:01;32.33;;;14.48;;
49530;SDS011;74875;30.696;104.060;2024-03-07T10:45:28;26.48;;;13.52;;
49530;SDS011;74875;30.696;104.060;2024-03-07T10:47:57;22.63;;;12.10;;
49530;SDS011;74875;30.696;104.060;2024-03-07T10:53:19;25.90;;;12.57;;
49530;SDS011;74875;30.696;104.060;2024-03-07T11:01:25;26.02;;;11.68;;
49530;SDS011;74875;30.696;104.060;2024-03-07T11:03:57;18.27;;;10.52;;
49530;SDS011;74875;30.696;104.060;2024-03-07T11:06:25;29.92;;;12.27;;
49530;SDS011;74875;30.696;104.060;2024-03-07T11:08:55;24.35;;;12.27;;
49530;SDS011;74875;30.696;104.060;2024-03-07T11:11:25;25.48;;;10.65;;
49530;SDS011;74875;30.696;104.060;2024-03-07T11:13:53;27.52;;;11.65;;
49530;SDS011;74875;30.696;104.060;2024-03-07T11:16:21;25.73;;;12.48;;
49530;SDS011;74875;30.696;104.060;2024-03-07T11:21:56;20.33;;;10.15;;
49530;SDS011;74875;30.696;104.060;2024-03-07T11:26:54;21.80;;;10.20;;
49530;SDS011;74875;30.696;104.060;2024-03-07T11:29:46;20.05;;;10.57;;
49530;SDS011;74875;30.696;104.060;2024-03-07T11:32:19;20.20;;;9.95;;
49530;SDS011;74875;30.696;104.060;2024-03-07T11:34:49;22.80;;;9.10;;
49530;SDS011;74875;30.696;104.060;2024-03-07T11:37:37;20.15;;;10.30;;
49530;SDS011;74875;30.696;104.060;2024-03-07T11:40:09;19.70;;;9.13;;
49530;SDS011;74875;30.696;104.060;2024-03-07T11:42:44;19.05;;;9.65;;
49530;SDS011;74875;30.696;104.060;2024-03-07T11:45:14;19.02;;;9.07;;
49530;SDS011;74875;30.696;104.060;2024-03-07T11:47:53;23.48;;;12.23;;
49530;SDS011;74875;30.696;104.060;2024-03-07T11:50:39;21.48;;;9.75;;
49530;SDS011;74875;30.696;104.060;2024-03-07T11:53:09;27.02;;;10.20;;
49530;SDS011;74875;30.696;104.060;2024-03-07T11:55:39;22.45;;;8.68;;
49530;SDS011;74875;30.696;104.060;2024-03-07T11:58:14;20.67;;;10.95;;
49530;SDS011;74875;30.696;104.060;2024-03-07T12:00:43;21.05;;;10.05;;
49530;SDS011;74875;30.696;104.060;2024-03-07T12:03:17;16.38;;;8.60;;
49530;SDS011;74875;30.696;104.060;2024-03-07T12:05:50;18.35;;;9.35;;
49530;SDS011;74875;30.696;104.060;2024-03-07T12:08:18;22.20;;;10.30;;
49530;SDS011;74875;30.696;104.060;2024-03-07T12:10:48;24.42;;;8.63;;
49530;SDS011;74875;30.696;104.060;2024-03-07T12:13:19;18.73;;;8.05;;
49530;SDS011;74875;30.696;104.060;2024-03-07T12:15:54;17.30;;;8.68;;
49530;SDS011;74875;30.696;104.060;2024-03-07T12:18:21;16.17;;;7.97;;
49530;SDS011;74875;30.696;104.060;2024-03-07T12:20:48;20.48;;;8.63;;
49530;SDS011;74875;30.696;104.060;2024-03-07T12:23:22;18.77;;;8.90;;
49530;SDS011;74875;30.696;104.060;2024-03-07T12:26:00;16.90;;;9.02;;
49530;SDS011;74875;30.696;104.060;2024-03-07T12:28:28;15.35;;;7.68;;
49530;SDS011;74875;30.696;104.060;2024-03-07T12:30:58;19.63;;;8.02;;
49530;SDS011;74875;30.696;104.060;2024-03-07T12:33:29;19.77;;;8.23;;
49530;SDS011;74875;30.696;104.060;2024-03-07T12:36:01;17.85;;;8.00;;
49530;SDS011;74875;30.696;104.060;2024-03-07T12:38:36;13.65;;;6.68;;
49530;SDS011;74875;30.696;104.060;2024-03-07T12:41:08;17.88;;;8.27;;
49530;SDS011;74875;30.696;104.060;2024-03-07T12:46:13;13.10;;;7.78;;
49530;SDS011;74875;30.696;104.060;2024-03-07T12:48:41;15.05;;;7.30;;
49530;SDS011;74875;30.696;104.060;2024-03-07T12:51:10;15.65;;;7.70;;
49530;SDS011;74875;30.696;104.060;2024-03-07T12:53:42;15.45;;;8.23;;
49530;SDS011;74875;30.696;104.060;2024-03-07T12:56:09;16.38;;;8.20;;
49530;SDS011;74875;30.696;104.060;2024-03-07T12:58:36;20.30;;;8.35;;
49530;SDS011;74875;30.696;104.060;2024-03-07T13:01:02;16.67;;;7.13;;
49530;SDS011;74875;30.696;104.060;2024-03-07T13:03:29;13.55;;;7.68;;
49530;SDS011;74875;30.696;104.060;2024-03-07T13:05:57;18.25;;;8.50;;
49530;SDS011;74875;30.696;104.060;2024-03-07T13:08:27;23.60;;;7.75;;
49530;SDS011;74875;30.696;104.060;2024-03-07T13:10:57;18.35;;;8.20;;
49530;SDS011;74875;30.696;104.060;2024-03-07T13:13:26;15.90;;;7.63;;
49530;SDS011;74875;30.696;104.060;2024-03-07T13:15:56;16.65;;;7.53;;
49530;SDS011;74875;30.696;104.060;2024-03-07T13:18:23;16.08;;;7.95;;
49530;SDS011;74875;30.696;104.060;2024-03-07T13:20:50;12.90;;;6.65;;
49530;SDS011;74875;30.696;104.060;2024-03-07T13:23:17;15.13;;;7.93;;
49530;SDS011;74875;30.696;104.060;2024-03-07T13:25:53;14.00;;;6.28;;
49530;SDS011;74875;30.696;104.060;2024-03-07T13:28:20;16.58;;;8.13;;
49530;SDS011;74875;30.696;104.060;2024-03-07T13:30:50;14.98;;;7.85;;
49530;SDS011;74875;30.696;104.060;2024-03-07T13:33:20;17.35;;;8.07;;
49530;SDS011;74875;30.696;104.060;2024-03-07T13:35:49;18.50;;;8.32;;
49530;SDS011;74875;30.696;104.060;2024-03-07T13:38:17;19.45;;;8.07;;
49530;SDS011;74875;30.696;104.060;2024-03-07T13:40:47;18.25;;;7.68;;
49530;SDS011;74875;30.696;104.060;2024-03-07T13:43:15;13.05;;;6.75;;
49530;SDS011;74875;30.696;104.060;2024-03-07T13:45:42;13.27;;;7.43;;
49530;SDS011;74875;30.696;104.060;2024-03-07T13:48:10;17.90;;;7.07;;
49530;SDS011;74875;30.696;104.060;2024-03-07T13:50:42;12.45;;;6.82;;
49530;SDS011;74875;30.696;104.060;2024-03-07T13:53:15;12.65;;;7.43;;
49530;SDS011;74875;30.696;104.060;2024-03-07T13:55:53;23.38;;;8.35;;
49530;SDS011;74875;30.696;104.060;2024-03-07T14:04:11;10.93;;;6.88;;
49530;SDS011;74875;30.696;104.060;2024-03-07T14:12:35;16.08;;;7.22;;
49530;SDS011;74875;30.696;104.060;2024-03-07T14:27:27;16.48;;;7.32;;
49530;SDS011;74875;30.696;104.060;2024-03-07T14:31:00;13.38;;;6.47;;
49530;SDS011;74875;30.696;104.060;2024-03-07T14:36:41;14.77;;;7.20;;
49530;SDS011;74875;30.696;104.060;2024-03-07T14:39:25;10.88;;;6.05;;
49530;SDS011;74875;30.696;104.060;2024-03-07T14:41:57;10.40;;;6.43;;
49530;SDS011;74875;30.696;104.060;2024-03-07T14:44:25;13.68;;;6.65;;
49530;SDS011;74875;30.696;104.060;2024-03-07T14:47:03;11.25;;;7.00;;
49530;SDS011;74875;30.696;104.060;2024-03-07T14:49:37;14.48;;;7.50;;
49530;SDS011;74875;30.696;104.060;2024-03-07T14:52:05;12.90;;;5.82;;
49530;SDS011;74875;30.696;104.060;2024-03-07T14:54:39;19.00;;;7.88;;
49530;SDS011;74875;30.696;104.060;2024-03-07T14:57:07;10.82;;;6.43;;